createdAt,value
2022-09-17T00:01:25.024Z,11.48
2022-09-17T00:03:53.764Z,11.58
2022-09-17T00:06:21.912Z,11.45
2022-09-17T00:08:48.950Z,11.25
2022-09-17T00:11:36.402Z,11.13
2022-09-17T00:14:04.902Z,11.30
2022-09-17T00:16:35.774Z,11.31
2022-09-17T00:19:03.009Z,11.28
2022-09-17T00:21:29.917Z,10.97
2022-09-17T00:23:59.571Z,11.10
2022-09-17T00:26:27.011Z,11.02
2022-09-17T00:28:54.305Z,11.10
2022-09-17T00:31:21.604Z,11.50
2022-09-17T00:33:48.410Z,11.52
2022-09-17T00:36:15.293Z,11.40
2022-09-17T00:38:41.816Z,11.34
2022-09-17T00:41:09.043Z,11.28
2022-09-17T00:43:49.323Z,11.57
2022-09-17T00:46:38.371Z,11.41
2022-09-17T00:49:11.235Z,11.58
2022-09-17T00:51:44.006Z,11.65
2022-09-17T00:54:11.074Z,11.15
2022-09-17T00:56:39.899Z,11.59
2022-09-17T00:59:07.458Z,11.54
2022-09-17T01:01:34.042Z,11.59
2022-09-17T01:04:00.738Z,11.64
2022-09-17T01:06:35.207Z,11.64
2022-09-17T01:09:09.137Z,11.77
2022-09-17T01:12:03.070Z,11.65
2022-09-17T01:14:55.278Z,11.22
2022-09-17T01:17:46.808Z,11.56
2022-09-17T01:20:31.968Z,11.47
2022-09-17T01:23:26.475Z,11.46
2022-09-17T01:25:58.822Z,11.21
2022-09-17T01:28:34.353Z,11.10
2022-09-17T01:31:09.689Z,11.15
2022-09-17T01:33:53.267Z,10.89
2022-09-17T01:36:26.337Z,11.41
2022-09-17T01:38:58.978Z,11.25
2022-09-17T01:41:42.069Z,11.20
2022-09-17T01:44:18.678Z,11.47
2022-09-17T01:47:01.938Z,11.55
2022-09-17T01:49:30.279Z,11.13
2022-09-17T01:51:56.893Z,10.38
2022-09-17T01:54:49.184Z,11.47
2022-09-17T01:57:29.526Z,10.93
2022-09-17T02:00:03.809Z,11.02
2022-09-17T02:02:33.245Z,10.77
2022-09-17T02:05:04.958Z,10.95
2022-09-17T02:07:32.844Z,11.41
2022-09-17T02:10:04.068Z,11.31
2022-09-17T02:12:34.475Z,11.29
2022-09-17T02:15:03.391Z,11.47
2022-09-17T02:17:59.081Z,11.00
2022-09-17T02:20:30.214Z,10.77
2022-09-17T02:23:00.069Z,10.76
2022-09-17T02:25:33.875Z,10.79
2022-09-17T02:28:23.389Z,10.91
2022-09-17T02:30:50.483Z,10.64
2022-09-17T02:33:17.857Z,11.17
2022-09-17T02:35:45.092Z,11.07
2022-09-17T02:38:11.571Z,11.65
2022-09-17T02:40:46.427Z,11.55
2022-09-17T02:43:50.265Z,11.78
2022-09-17T02:46:29.515Z,11.49
2022-09-17T02:49:03.517Z,11.50
2022-09-17T02:52:05.797Z,11.43
2022-09-17T02:54:38.787Z,11.34
2022-09-17T02:57:09.849Z,11.19
2022-09-17T02:59:45.775Z,10.80
2022-09-17T03:02:14.897Z,11.31
2022-09-17T03:04:42.611Z,11.23
2022-09-17T03:07:11.942Z,11.55
2022-09-17T03:09:38.876Z,11.69
2022-09-17T03:12:05.466Z,11.98
2022-09-17T03:14:32.142Z,11.52
2022-09-17T03:16:58.690Z,11.75
2022-09-17T03:19:25.275Z,11.71
2022-09-17T03:21:51.721Z,11.28
2022-09-17T03:24:18.141Z,11.34
2022-09-17T03:26:44.723Z,11.22
2022-09-17T03:29:11.167Z,11.55
2022-09-17T03:31:37.648Z,11.23
2022-09-17T03:34:04.373Z,11.53
2022-09-17T03:36:31.259Z,11.13
2022-09-17T03:38:58.586Z,11.62
2022-09-17T03:41:25.457Z,11.19
2022-09-17T03:43:52.489Z,11.67
2022-09-17T03:46:20.479Z,11.71
2022-09-17T03:48:46.950Z,11.87
2022-09-17T03:51:13.668Z,11.46
2022-09-17T03:53:40.159Z,11.99
2022-09-17T03:56:07.315Z,11.91
2022-09-17T03:58:34.329Z,12.09
2022-09-17T04:01:01.166Z,11.49
2022-09-17T04:03:28.453Z,11.65
2022-09-17T04:05:55.202Z,10.37
2022-09-17T04:08:21.890Z,11.59
2022-09-17T04:10:48.867Z,11.74
2022-09-17T04:13:16.211Z,11.66
2022-09-17T04:15:42.936Z,11.86
2022-09-17T04:18:10.055Z,11.46
2022-09-17T04:20:36.932Z,11.37
2022-09-17T04:23:04.171Z,11.78
2022-09-17T04:25:31.022Z,11.90
2022-09-17T04:27:58.140Z,12.24
2022-09-17T04:30:24.647Z,12.11
2022-09-17T04:32:51.475Z,12.42
2022-09-17T04:35:18.068Z,11.29
2022-09-17T04:37:52.315Z,12.53
2022-09-17T04:40:18.922Z,12.65
2022-09-17T04:42:45.432Z,12.55
2022-09-17T04:45:12.379Z,12.81
2022-09-17T04:47:39.854Z,12.51
2022-09-17T04:50:06.852Z,11.86
2022-09-17T04:52:33.576Z,11.81
2022-09-17T04:55:00.175Z,11.71
2022-09-17T04:57:27.733Z,11.94
2022-09-17T04:59:54.293Z,11.23
2022-09-17T05:02:20.876Z,11.42
2022-09-17T05:04:47.376Z,11.61
2022-09-17T05:07:14.137Z,11.51
2022-09-17T05:09:40.654Z,11.79
2022-09-17T05:12:07.263Z,11.88
2022-09-17T05:14:33.796Z,11.93
2022-09-17T05:17:00.226Z,11.84
2022-09-17T05:19:26.739Z,12.21
2022-09-17T05:21:53.318Z,12.51
2022-09-17T05:24:19.756Z,12.00
2022-09-17T05:26:46.272Z,12.16
2022-09-17T05:29:12.849Z,11.71
2022-09-17T05:31:39.398Z,12.21
2022-09-17T05:34:05.949Z,12.14
2022-09-17T05:36:32.418Z,12.02
2022-09-17T05:38:58.873Z,12.38
2022-09-17T05:41:25.433Z,12.00
2022-09-17T05:43:51.916Z,12.16
2022-09-17T05:46:18.448Z,12.22
2022-09-17T05:48:44.928Z,11.94
2022-09-17T05:51:11.670Z,12.62
2022-09-17T05:53:38.783Z,12.61
2022-09-17T05:56:05.479Z,12.38
2022-09-17T05:58:34.342Z,12.83
2022-09-17T06:01:01.623Z,12.97
2022-09-17T06:03:28.124Z,12.76
2022-09-17T06:05:56.429Z,13.01
2022-09-17T06:08:23.331Z,12.82
2022-09-17T06:10:52.280Z,13.17
2022-09-17T06:13:19.520Z,12.46
2022-09-17T06:15:54.959Z,12.39
2022-09-17T06:18:21.523Z,12.56
2022-09-17T06:20:55.516Z,12.20
2022-09-17T06:23:22.358Z,12.37
2022-09-17T06:25:56.670Z,12.66
2022-09-17T06:28:23.535Z,13.34
2022-09-17T06:30:54.338Z,13.38
2022-09-17T06:33:21.628Z,13.79
2022-09-17T06:35:48.419Z,13.61
2022-09-17T06:38:15.243Z,13.18
2022-09-17T06:40:41.809Z,13.54
2022-09-17T06:43:08.462Z,13.81
2022-09-17T06:45:34.902Z,13.77
2022-09-17T06:48:04.359Z,12.88
2022-09-17T06:50:31.184Z,13.68
2022-09-17T06:52:57.759Z,13.29
2022-09-17T06:55:24.322Z,13.57
2022-09-17T06:57:50.823Z,13.37
2022-09-17T07:00:17.864Z,13.49
2022-09-17T07:02:44.307Z,12.90
2022-09-17T07:05:10.807Z,12.57
2022-09-17T07:07:37.417Z,13.15
2022-09-17T07:10:04.131Z,12.54
2022-09-17T07:12:30.660Z,13.56
2022-09-17T07:14:57.095Z,13.31
2022-09-17T07:17:23.556Z,13.88
2022-09-17T07:19:50.890Z,14.14
2022-09-17T07:22:17.486Z,13.05
2022-09-17T07:24:44.320Z,13.86
2022-09-17T07:27:10.755Z,13.96
2022-09-17T07:29:37.212Z,13.97
2022-09-17T07:32:03.708Z,13.80
2022-09-17T07:34:30.225Z,14.02
2022-09-17T07:36:56.661Z,14.61
2022-09-17T07:39:23.175Z,14.32
2022-09-17T07:41:49.625Z,14.81
2022-09-17T07:44:16.134Z,14.67
2022-09-17T07:46:42.858Z,14.88
2022-09-17T07:49:09.383Z,14.94
2022-09-17T07:51:36.108Z,15.01
2022-09-17T07:54:02.580Z,15.00
2022-09-17T07:56:29.435Z,14.31
2022-09-17T07:58:56.013Z,14.97
2022-09-17T08:01:23.135Z,14.88
2022-09-17T08:03:53.817Z,14.52
2022-09-17T08:06:28.545Z,14.87
2022-09-17T08:08:56.303Z,14.83
2022-09-17T08:11:54.459Z,14.69
2022-09-17T08:14:14.732Z,14.93
2022-09-17T08:16:42.249Z,15.66
2022-09-17T08:19:11.506Z,15.28
2022-09-17T08:21:38.093Z,14.69
2022-09-17T08:24:04.874Z,15.69
2022-09-17T08:26:31.568Z,16.24
2022-09-17T08:28:58.613Z,15.41
2022-09-17T08:31:26.924Z,15.18
2022-09-17T08:33:53.745Z,15.49
2022-09-17T08:36:21.238Z,16.15
2022-09-17T08:38:49.728Z,14.99
2022-09-17T08:41:37.537Z,15.30
2022-09-17T08:44:04.613Z,16.53
2022-09-17T08:46:42.261Z,15.69
2022-09-17T08:49:21.899Z,16.36
2022-09-17T08:52:23.877Z,15.73
2022-09-17T08:55:00.339Z,16.25
2022-09-17T08:57:45.500Z,16.87
2022-09-17T09:00:14.855Z,16.58
2022-09-17T09:02:56.708Z,17.27
2022-09-17T09:05:30.215Z,17.76
2022-09-17T09:08:02.700Z,17.84
2022-09-17T09:10:33.610Z,17.39
2022-09-17T09:13:00.674Z,18.43
2022-09-17T09:15:36.184Z,17.47
2022-09-17T09:18:20.823Z,16.93
2022-09-17T09:20:55.708Z,17.82
2022-09-17T09:23:59.083Z,18.15
2022-09-17T09:26:45.150Z,18.11
2022-09-17T09:29:22.045Z,18.10
2022-09-17T09:32:16.649Z,17.34
2022-09-17T09:34:46.749Z,17.91
2022-09-17T09:37:26.502Z,18.30
2022-09-17T09:39:54.439Z,21.19
2022-09-17T09:42:34.262Z,22.77
2022-09-17T09:45:05.501Z,26.12
2022-09-17T09:47:40.367Z,27.46
2022-09-17T09:50:22.043Z,27.50
2022-09-17T09:53:00.559Z,25.19
2022-09-17T09:55:51.854Z,28.34
2022-09-17T09:58:38.361Z,23.35
2022-09-17T10:01:15.057Z,21.21
2022-09-17T10:03:45.860Z,26.22
2022-09-17T10:06:16.036Z,24.84
2022-09-17T10:09:02.471Z,23.63
2022-09-17T10:11:33.086Z,22.92
2022-09-17T10:14:25.531Z,25.93
2022-09-17T10:17:21.773Z,24.95
2022-09-17T10:20:18.315Z,24.52
2022-09-17T10:22:48.818Z,23.99
2022-09-17T10:25:29.722Z,20.90
2022-09-17T10:27:58.015Z,19.65
2022-09-17T10:30:25.967Z,19.48
2022-09-17T10:33:21.785Z,22.86
2022-09-17T10:36:14.929Z,22.53
2022-09-17T10:38:44.017Z,21.25
2022-09-17T10:41:24.817Z,20.88
2022-09-17T10:43:51.811Z,20.39
2022-09-17T10:46:26.674Z,21.07
2022-09-17T10:49:12.151Z,24.74
2022-09-17T10:51:38.859Z,27.37
2022-09-17T10:54:32.584Z,23.85
2022-09-17T10:56:59.642Z,21.77
2022-09-17T10:59:38.489Z,19.59
2022-09-17T11:02:27.770Z,18.80
2022-09-17T11:05:03.493Z,17.18
2022-09-17T11:07:36.537Z,17.16
2022-09-17T11:10:12.330Z,18.09
2022-09-17T11:13:12.295Z,17.33
2022-09-17T11:15:42.682Z,16.83
2022-09-17T11:18:32.976Z,19.77
2022-09-17T11:21:27.546Z,23.64
2022-09-17T11:24:31.941Z,27.83
2022-09-17T11:27:12.121Z,29.14
2022-09-17T11:29:59.537Z,28.63
2022-09-17T11:32:53.559Z,28.74
2022-09-17T11:35:24.394Z,28.35
2022-09-17T11:38:30.056Z,29.30
2022-09-17T11:41:02.651Z,30.84
2022-09-17T11:43:38.020Z,31.07
2022-09-17T11:46:11.146Z,33.16
2022-09-17T11:48:50.713Z,34.95
2022-09-17T11:51:26.274Z,31.77
2022-09-17T11:54:01.632Z,34.96
2022-09-17T11:56:43.954Z,30.56
2022-09-17T11:59:30.165Z,26.42
2022-09-17T12:01:58.555Z,23.37
2022-09-17T12:04:54.130Z,20.54
2022-09-17T12:07:57.678Z,20.85
2022-09-17T12:10:49.794Z,21.28
2022-09-17T12:13:22.337Z,20.06
2022-09-17T12:15:53.439Z,19.43
2022-09-17T12:18:39.143Z,18.21
2022-09-17T12:21:08.789Z,17.94
2022-09-17T12:23:50.309Z,18.31
2022-09-17T12:26:54.566Z,18.21
2022-09-17T12:29:39.481Z,17.72
2022-09-17T12:32:48.691Z,17.34
2022-09-17T12:36:04.428Z,17.65
2022-09-17T12:39:05.419Z,17.73
2022-09-17T12:41:59.659Z,18.07
2022-09-17T12:44:35.784Z,18.51
2022-09-17T12:47:20.938Z,17.91
2022-09-17T12:49:58.232Z,18.13
2022-09-17T12:53:02.401Z,18.05
2022-09-17T12:56:14.685Z,18.25
2022-09-17T12:59:05.588Z,18.62
2022-09-17T13:01:50.906Z,18.71
2022-09-17T13:04:59.485Z,17.70
2022-09-17T13:07:45.731Z,17.08
2022-09-17T13:10:21.254Z,16.90
2022-09-17T13:12:58.297Z,15.35
2022-09-17T13:15:24.819Z,14.67
2022-09-17T13:18:22.944Z,14.13
2022-09-17T13:21:03.698Z,14.35
2022-09-17T13:23:36.385Z,14.48
2022-09-17T13:26:05.201Z,14.63
2022-09-17T13:28:42.159Z,14.87
2022-09-17T13:31:11.892Z,14.66
2022-09-17T13:33:53.668Z,14.86
2022-09-17T13:36:42.789Z,15.21
2022-09-17T13:39:12.193Z,15.44
2022-09-17T13:41:41.364Z,16.02
2022-09-17T13:44:10.034Z,16.13
2022-09-17T13:46:37.244Z,16.30
2022-09-17T13:49:11.425Z,16.55
2022-09-17T13:51:37.877Z,16.02
2022-09-17T13:54:06.836Z,16.85
2022-09-17T13:57:12.317Z,16.21
2022-09-17T13:59:38.912Z,16.62
2022-09-17T14:02:14.588Z,16.46
2022-09-17T14:04:41.022Z,16.63
2022-09-17T14:07:31.858Z,16.29
2022-09-17T14:10:16.689Z,16.46
2022-09-17T14:12:44.589Z,16.99
2022-09-17T14:15:43.313Z,17.23
2022-09-17T14:18:45.454Z,17.33
2022-09-17T14:21:16.636Z,16.91
2022-09-17T14:23:50.333Z,17.00
2022-09-17T14:26:26.076Z,17.42
2022-09-17T14:29:03.153Z,17.14
2022-09-17T14:31:35.866Z,17.50
2022-09-17T14:34:06.427Z,17.46
2022-09-17T14:36:35.701Z,17.60
2022-09-17T14:39:05.185Z,17.69
2022-09-17T14:41:39.671Z,16.92
2022-09-17T14:44:19.537Z,16.64
2022-09-17T14:46:56.561Z,17.18
2022-09-17T14:49:25.063Z,15.94
2022-09-17T14:51:56.368Z,15.64
2022-09-17T14:54:25.077Z,14.98
2022-09-17T14:56:53.433Z,14.23
2022-09-17T14:59:30.889Z,14.13
2022-09-17T15:01:57.561Z,14.19
2022-09-17T15:04:26.894Z,14.11
2022-09-17T15:06:53.915Z,13.21
2022-09-17T15:09:25.678Z,13.49
2022-09-17T15:11:54.806Z,13.62
2022-09-17T15:14:31.724Z,14.01
2022-09-17T15:17:00.091Z,14.15
2022-09-17T15:19:33.245Z,14.69
2022-09-17T15:22:05.787Z,14.50
2022-09-17T15:24:44.879Z,13.90
2022-09-17T15:27:14.326Z,14.52
2022-09-17T15:29:44.757Z,13.67
2022-09-17T15:32:14.680Z,13.89
2022-09-17T15:34:41.720Z,13.78
2022-09-17T15:37:20.564Z,14.66
2022-09-17T15:39:52.973Z,14.95
2022-09-17T15:42:20.552Z,15.28
2022-09-17T15:44:47.331Z,15.69
2022-09-17T15:47:51.194Z,15.76
2022-09-17T15:50:31.981Z,15.18
2022-09-17T15:53:10.686Z,15.71
2022-09-17T15:55:41.030Z,15.55
2022-09-17T15:58:27.837Z,15.11
2022-09-17T16:01:06.685Z,14.88
2022-09-17T16:03:39.532Z,15.00
2022-09-17T16:06:18.560Z,15.15
2022-09-17T16:08:49.198Z,14.91
2022-09-17T16:11:27.790Z,15.31
2022-09-17T16:13:56.776Z,15.09
2022-09-17T16:16:24.723Z,15.68
2022-09-17T16:18:54.422Z,15.52
2022-09-17T16:21:21.066Z,15.42
2022-09-17T16:23:47.838Z,15.01
2022-09-17T16:26:18.554Z,15.76
2022-09-17T16:28:50.129Z,16.08
2022-09-17T16:31:16.720Z,16.01
2022-09-17T16:33:43.239Z,15.69
2022-09-17T16:36:09.987Z,15.79
2022-09-17T16:38:36.893Z,15.84
2022-09-17T16:41:06.607Z,15.24
2022-09-17T16:43:36.534Z,14.83
2022-09-17T16:46:06.101Z,15.37
2022-09-17T16:48:33.285Z,15.20
2022-09-17T16:51:01.536Z,14.48
2022-09-17T16:53:28.119Z,14.20
2022-09-17T16:55:54.797Z,14.56
2022-09-17T16:58:21.231Z,14.19
2022-09-17T17:00:48.003Z,14.60
2022-09-17T17:03:15.441Z,14.69
2022-09-17T17:05:43.373Z,14.49
2022-09-17T17:08:10.473Z,14.39
2022-09-17T17:10:40.616Z,14.57
2022-09-17T17:13:07.175Z,14.57
2022-09-17T17:15:33.781Z,14.12
2022-09-17T17:18:00.246Z,14.68
2022-09-17T17:20:26.785Z,14.52
2022-09-17T17:22:53.349Z,14.45
2022-09-17T17:25:19.800Z,14.90
2022-09-17T17:27:46.381Z,14.51
2022-09-17T17:30:17.179Z,14.65
2022-09-17T17:32:44.032Z,14.96
2022-09-17T17:35:10.814Z,14.49
2022-09-17T17:37:37.347Z,14.43
2022-09-17T17:40:07.171Z,13.41
2022-09-17T17:42:38.079Z,14.59
2022-09-17T17:45:07.414Z,14.50
2022-09-17T17:47:34.559Z,15.08
2022-09-17T17:50:01.149Z,14.15
2022-09-17T17:52:27.928Z,14.75
2022-09-17T17:54:54.725Z,14.49
2022-09-17T17:57:21.409Z,14.32
2022-09-17T17:59:47.908Z,13.83
2022-09-17T18:02:14.475Z,14.35
2022-09-17T18:04:41.112Z,13.82
2022-09-17T18:07:07.718Z,14.36
2022-09-17T18:09:37.357Z,13.86
2022-09-17T18:12:03.990Z,14.19
2022-09-17T18:14:30.483Z,13.81
2022-09-17T18:16:56.956Z,13.94
2022-09-17T18:19:23.419Z,13.66
2022-09-17T18:21:49.944Z,14.01
2022-09-17T18:24:16.430Z,13.66
2022-09-17T18:26:42.957Z,14.11
2022-09-17T18:29:09.592Z,13.69
2022-09-17T18:31:37.722Z,14.03
2022-09-17T18:34:13.059Z,14.20
2022-09-17T18:36:40.002Z,14.05
2022-09-17T18:39:56.751Z,13.91
2022-09-17T18:41:55.640Z,13.94
2022-09-17T18:44:22.455Z,13.62
2022-09-17T18:46:50.188Z,13.69
2022-09-17T18:49:16.830Z,13.11
2022-09-17T18:51:43.534Z,13.64
2022-09-17T18:54:10.866Z,14.12
2022-09-17T18:56:37.657Z,13.56
2022-09-17T18:59:08.162Z,14.27
2022-09-17T19:01:35.585Z,14.39
2022-09-17T19:04:02.843Z,14.43
2022-09-17T19:06:30.473Z,13.86
2022-09-17T19:09:00.681Z,14.26
2022-09-17T19:11:27.321Z,13.92
2022-09-17T19:13:54.084Z,14.17
2022-09-17T19:16:20.720Z,14.29
2022-09-17T19:18:47.277Z,14.27
2022-09-17T19:21:18.242Z,13.60
2022-09-17T19:23:47.105Z,14.05
2022-09-17T19:26:19.370Z,14.03
2022-09-17T19:28:46.197Z,13.86
2022-09-17T19:31:14.905Z,13.47
2022-09-17T19:33:41.682Z,13.31
2022-09-17T19:36:11.311Z,13.03
2022-09-17T19:38:37.964Z,13.50
2022-09-17T19:41:07.267Z,13.16
2022-09-17T19:43:34.135Z,13.23
2022-09-17T19:46:20.995Z,13.14
2022-09-17T19:48:52.610Z,13.18
2022-09-17T19:51:20.558Z,13.45
2022-09-17T19:53:47.217Z,13.09
2022-09-17T19:56:16.093Z,13.37
2022-09-17T19:58:42.938Z,13.59
2022-09-17T20:01:10.430Z,13.71
2022-09-17T20:03:41.380Z,12.87
2022-09-17T20:06:10.249Z,13.05
2022-09-17T20:08:42.556Z,13.11
2022-09-17T20:11:12.173Z,13.30
2022-09-17T20:13:41.927Z,13.44
2022-09-17T20:16:11.404Z,12.95
2022-09-17T20:18:38.610Z,13.30
2022-09-17T20:21:09.788Z,13.36
2022-09-17T20:23:36.285Z,13.09
2022-09-17T20:26:03.524Z,13.37
2022-09-17T20:28:30.145Z,13.07
2022-09-17T20:31:04.909Z,13.61
2022-09-17T20:33:32.810Z,13.31
2022-09-17T20:36:04.793Z,13.25
2022-09-17T20:39:10.090Z,13.40
2022-09-17T20:41:19.366Z,13.79
2022-09-17T20:43:48.553Z,14.15
2022-09-17T20:46:16.372Z,14.58
2022-09-17T20:48:43.207Z,14.22
2022-09-17T20:51:17.804Z,14.04
2022-09-17T20:53:46.032Z,14.09
2022-09-17T20:56:15.302Z,14.34
2022-09-17T20:58:48.875Z,13.87
2022-09-17T21:01:20.539Z,13.87
2022-09-17T21:03:50.187Z,14.00
2022-09-17T21:06:21.180Z,13.39
2022-09-17T21:08:48.272Z,13.87
2022-09-17T21:11:16.280Z,13.84
2022-09-17T21:13:42.997Z,13.75
2022-09-17T21:16:10.360Z,13.55
2022-09-17T21:18:39.629Z,13.51
2022-09-17T21:21:08.390Z,13.81
2022-09-17T21:23:39.276Z,14.03
2022-09-17T21:26:08.166Z,13.72
2022-09-17T21:28:35.843Z,13.91
2022-09-17T21:31:14.069Z,13.62
2022-09-17T21:33:41.720Z,13.85
2022-09-17T21:36:17.098Z,13.18
2022-09-17T21:38:44.064Z,13.06
2022-09-17T21:41:15.158Z,13.47
2022-09-17T21:43:42.863Z,13.52
2022-09-17T21:46:10.150Z,13.59
2022-09-17T21:48:42.085Z,13.14
2022-09-17T21:51:11.109Z,13.24
2022-09-17T21:53:37.641Z,13.41
2022-09-17T21:56:06.754Z,13.38
2022-09-17T21:58:33.794Z,13.27
2022-09-17T22:01:11.742Z,13.12
2022-09-17T22:03:38.712Z,13.23
2022-09-17T22:06:12.585Z,13.24
2022-09-17T22:08:39.423Z,12.95
2022-09-17T22:11:08.629Z,13.14
2022-09-17T22:13:35.821Z,12.76
2022-09-17T22:16:04.916Z,13.60
2022-09-17T22:18:33.023Z,12.92
2022-09-17T22:21:00.444Z,13.09
2022-09-17T22:23:27.616Z,13.44
2022-09-17T22:26:02.317Z,13.05
2022-09-17T22:28:28.838Z,13.04
2022-09-17T22:30:55.401Z,13.48
2022-09-17T22:33:26.685Z,12.82
2022-09-17T22:35:53.179Z,12.29
2022-09-17T22:38:19.679Z,12.22
2022-09-17T22:40:46.154Z,12.64
2022-09-17T22:43:12.610Z,12.72
2022-09-17T22:45:39.129Z,12.76
2022-09-17T22:48:05.904Z,13.00
2022-09-17T22:50:32.460Z,12.53
2022-09-17T22:52:59.146Z,12.89
2022-09-17T22:55:25.609Z,12.93
2022-09-17T22:57:52.109Z,12.91
2022-09-17T23:00:18.552Z,12.86
2022-09-17T23:02:45.070Z,13.04
2022-09-17T23:05:11.657Z,13.24
2022-09-17T23:07:38.141Z,13.25
2022-09-17T23:10:04.950Z,13.06
2022-09-17T23:12:31.438Z,12.51
2022-09-17T23:14:57.916Z,12.63
2022-09-17T23:17:29.197Z,12.40
2022-09-17T23:19:56.280Z,12.78
2022-09-17T23:22:23.199Z,12.27
2022-09-17T23:24:49.998Z,12.52
2022-09-17T23:27:16.477Z,12.65
2022-09-17T23:29:42.945Z,12.62
2022-09-17T23:32:09.485Z,12.49
2022-09-17T23:34:37.668Z,12.95
2022-09-17T23:37:04.228Z,12.96
2022-09-17T23:39:30.921Z,12.71
2022-09-17T23:41:57.370Z,12.66
2022-09-17T23:44:23.955Z,12.41
2022-09-17T23:46:50.455Z,12.09
2022-09-17T23:49:18.134Z,12.03
2022-09-17T23:51:45.226Z,12.77
2022-09-17T23:54:11.774Z,12.81
2022-09-17T23:56:38.310Z,12.55
2022-09-17T23:59:05.030Z,12.80
